Skyline Lakes, New Jersey
Current Conditions -  °F | °C
As of 6:53 AM on Thursday 29 Jan 2015 (Local Time) from KCDW Reporting Station
Clear Clear  
Wind Chill: 11°   Ceiling: Unl
Heat Index: 11°   Visibility: 10mi
Dew Point:   Wind: 0mph
Humidity: 61%   Direction: NA
Pressure: 30.34"   Gusts: NA
Location:  41.1036°N, 74.2801°W
Report Text: KCDW 291153Z AUTO 00000KT 10SM CLR M12/M18 A3034 RMK AO2 SLP283 T11171178 11089 21122 53007 TSNO
Loading
Personal Weather Stations






























Interactive Weather Map New forecast layout! Learn more

10-Day Weather Forecast

Advertisements
Track Severe Weather on mobile